createdAt,value
2022-12-04T00:02:08.214Z,28.93
2022-12-04T00:04:38.900Z,28.95
2022-12-04T00:07:09.461Z,28.93
2022-12-04T00:09:40.636Z,28.92
2022-12-04T00:12:12.258Z,28.94
2022-12-04T00:15:16.501Z,29.06
2022-12-04T00:17:33.647Z,29.13
2022-12-04T00:20:05.197Z,29.08
2022-12-04T00:22:38.366Z,29.11
2022-12-04T00:25:09.720Z,29.11
2022-12-04T00:27:40.297Z,29.07
2022-12-04T00:30:10.983Z,29.07
2022-12-04T00:32:41.727Z,29.00
2022-12-04T00:35:12.574Z,29.03
2022-12-04T00:37:43.249Z,28.98
2022-12-04T00:40:14.058Z,28.98
2022-12-04T00:42:44.841Z,28.96
2022-12-04T00:45:15.691Z,28.96
2022-12-04T00:47:47.049Z,28.93
2022-12-04T00:50:17.950Z,28.93
2022-12-04T00:52:48.311Z,28.93
2022-12-04T00:55:19.315Z,28.89
2022-12-04T00:57:57.136Z,28.90
2022-12-04T01:00:30.236Z,28.89
2022-12-04T01:03:00.844Z,28.86
2022-12-04T01:05:31.771Z,28.89
2022-12-04T01:08:02.334Z,28.87
2022-12-04T01:10:32.635Z,28.88
2022-12-04T01:13:02.975Z,28.89
2022-12-04T01:15:33.562Z,28.89
2022-12-04T01:18:05.298Z,28.87
2022-12-04T01:20:38.512Z,28.90
2022-12-04T01:23:09.024Z,28.92
2022-12-04T01:25:40.127Z,28.97
2022-12-04T01:28:11.195Z,29.00
2022-12-04T01:30:41.761Z,28.99
2022-12-04T01:33:14.222Z,29.02
2022-12-04T01:35:44.831Z,29.01
2022-12-04T01:38:18.397Z,29.06
2022-12-04T01:40:49.658Z,29.08
2022-12-04T01:43:20.500Z,29.07
2022-12-04T01:45:56.428Z,29.08
2022-12-04T01:48:46.965Z,29.16
2022-12-04T01:51:21.414Z,29.21
2022-12-04T01:54:04.859Z,29.23
2022-12-04T01:56:41.023Z,29.27
2022-12-04T01:59:12.345Z,29.35
2022-12-04T02:01:58.033Z,29.41
2022-12-04T02:04:28.709Z,29.46
2022-12-04T02:06:59.540Z,29.54
2022-12-04T02:09:32.550Z,29.64
2022-12-04T02:12:33.728Z,29.77
2022-12-04T02:15:26.990Z,29.84
2022-12-04T02:18:03.505Z,29.89
2022-12-04T02:21:29.159Z,30.00
2022-12-04T02:24:21.280Z,30.08
2022-12-04T02:26:58.622Z,30.11
2022-12-04T02:29:42.361Z,30.22
2022-12-04T02:32:35.555Z,30.30
2022-12-04T02:35:16.650Z,30.39
2022-12-04T02:38:05.501Z,30.38
2022-12-04T02:40:51.788Z,30.53
2022-12-04T02:43:36.284Z,30.59
2022-12-04T02:46:23.238Z,30.66
2022-12-04T02:48:56.878Z,30.73
2022-12-04T02:51:28.707Z,30.69
2022-12-04T02:54:04.594Z,30.77
2022-12-04T02:56:39.062Z,30.84
2022-12-04T02:59:21.253Z,30.97
2022-12-04T03:01:54.445Z,31.08
2022-12-04T03:04:28.965Z,31.06
2022-12-04T03:07:06.442Z,31.04
2022-12-04T03:10:15.470Z,31.08
2022-12-04T03:13:11.859Z,31.07
2022-12-04T03:16:00.960Z,31.02
2022-12-04T03:18:43.100Z,31.07
2022-12-04T03:21:21.030Z,31.06
2022-12-04T03:23:58.545Z,31.11
2022-12-04T03:26:43.572Z,31.06
2022-12-04T03:29:19.976Z,31.04
2022-12-04T03:32:01.049Z,31.03
2022-12-04T03:34:56.362Z,31.08
2022-12-04T03:37:43.302Z,31.07
2022-12-04T03:40:23.822Z,31.03
2022-12-04T03:43:14.716Z,31.10
2022-12-04T03:45:56.025Z,31.02
2022-12-04T03:48:52.040Z,31.08
2022-12-04T03:51:34.244Z,31.05
2022-12-04T03:54:10.048Z,31.11
2022-12-04T03:56:49.118Z,31.14
2022-12-04T03:59:35.414Z,31.18
2022-12-04T04:02:07.005Z,31.16
2022-12-04T04:04:39.160Z,31.21
2022-12-04T04:07:17.931Z,31.29
2022-12-04T04:09:54.235Z,31.43
2022-12-04T04:12:29.110Z,31.47
2022-12-04T04:15:31.782Z,31.57
2022-12-04T04:18:22.891Z,31.58
2022-12-04T04:21:18.981Z,31.62
2022-12-04T04:24:10.954Z,31.62
2022-12-04T04:26:46.597Z,31.58
2022-12-04T04:29:17.551Z,31.58
2022-12-04T04:32:01.921Z,31.62
2022-12-04T04:34:44.336Z,31.66
2022-12-04T04:37:24.033Z,31.77
2022-12-04T04:40:00.347Z,31.78
2022-12-04T04:43:05.268Z,31.84
2022-12-04T04:45:59.208Z,31.86
2022-12-04T04:48:52.936Z,31.89
2022-12-04T04:51:23.598Z,31.88
2022-12-04T04:53:57.984Z,31.91
2022-12-04T04:56:28.862Z,32.08
2022-12-04T04:58:59.379Z,32.11
2022-12-04T05:01:30.473Z,32.19
2022-12-04T05:04:01.020Z,32.34
2022-12-04T05:06:31.690Z,32.35
2022-12-04T05:09:02.495Z,32.34
2022-12-04T05:11:33.621Z,32.45
2022-12-04T05:14:04.123Z,32.40
2022-12-04T05:16:34.523Z,32.38
2022-12-04T05:19:23.526Z,32.37
2022-12-04T05:21:56.332Z,32.32
2022-12-04T05:24:27.779Z,32.30
2022-12-04T05:26:58.294Z,32.22
2022-12-04T05:29:31.614Z,32.18
2022-12-04T05:32:06.799Z,32.14
2022-12-04T05:34:37.355Z,32.14
2022-12-04T05:37:08.266Z,32.14
2022-12-04T05:39:38.735Z,32.12
2022-12-04T05:42:09.396Z,32.16
2022-12-04T05:44:39.728Z,32.15
2022-12-04T05:47:10.983Z,32.34
2022-12-04T05:49:41.825Z,32.49
2022-12-04T05:52:12.877Z,32.53
2022-12-04T05:54:43.514Z,32.60
2022-12-04T05:57:14.318Z,32.59
2022-12-04T05:59:44.538Z,32.70
2022-12-04T06:02:15.159Z,32.61
2022-12-04T06:04:45.414Z,32.55
2022-12-04T06:07:16.268Z,32.57
2022-12-04T06:09:47.232Z,32.54
2022-12-04T06:12:17.863Z,32.55
2022-12-04T06:14:48.532Z,32.62
2022-12-04T06:17:22.690Z,32.61
2022-12-04T06:19:54.637Z,32.59
2022-12-04T06:22:25.501Z,32.51
2022-12-04T06:24:56.400Z,32.51
2022-12-04T06:27:28.098Z,32.52
2022-12-04T06:29:59.035Z,32.45
2022-12-04T06:32:29.856Z,32.46
2022-12-04T06:35:02.969Z,32.51
2022-12-04T06:37:33.151Z,32.44
2022-12-04T06:40:07.288Z,32.43
2022-12-04T06:42:41.483Z,32.42
2022-12-04T06:45:12.941Z,32.42
2022-12-04T06:47:43.310Z,32.42
2022-12-04T06:50:14.663Z,32.60
2022-12-04T06:52:45.227Z,32.66
2022-12-04T06:55:18.013Z,32.65
2022-12-04T06:57:48.560Z,32.68
2022-12-04T07:00:19.062Z,32.74
2022-12-04T07:02:49.619Z,32.86
2022-12-04T07:05:21.695Z,32.81
2022-12-04T07:07:52.380Z,32.86
2022-12-04T07:10:23.318Z,32.81
2022-12-04T07:12:54.324Z,32.82
2022-12-04T07:15:24.644Z,32.75
2022-12-04T07:17:55.208Z,32.79
2022-12-04T07:20:26.211Z,32.70
2022-12-04T07:23:01.416Z,32.68
2022-12-04T07:25:34.702Z,32.63
2022-12-04T07:28:05.083Z,32.67
2022-12-04T07:30:35.758Z,32.64
2022-12-04T07:33:07.101Z,32.59
2022-12-04T07:35:37.908Z,32.59
2022-12-04T07:38:08.378Z,32.52
2022-12-04T07:40:39.402Z,32.47
2022-12-04T07:43:09.678Z,32.49
2022-12-04T07:45:40.584Z,32.47
2022-12-04T07:48:11.517Z,32.44
2022-12-04T07:50:41.859Z,32.45
2022-12-04T07:53:12.354Z,32.37
2022-12-04T07:55:43.001Z,32.31
2022-12-04T07:58:13.228Z,32.32
2022-12-04T08:00:43.681Z,32.27
2022-12-04T08:03:14.171Z,32.25
2022-12-04T08:05:44.983Z,32.23
2022-12-04T08:08:16.004Z,32.13
2022-12-04T08:10:47.130Z,32.12
2022-12-04T08:13:17.576Z,32.07
2022-12-04T08:15:48.228Z,32.08
2022-12-04T08:18:19.151Z,32.05
2022-12-04T08:20:49.620Z,32.04
2022-12-04T08:23:19.873Z,32.00
2022-12-04T08:25:50.270Z,31.99
2022-12-04T08:28:20.777Z,31.99
2022-12-04T08:30:52.939Z,31.98
2022-12-04T08:33:23.824Z,31.93
2022-12-04T08:35:55.462Z,31.91
2022-12-04T08:38:25.684Z,31.89
2022-12-04T08:40:55.918Z,31.87
2022-12-04T08:43:26.143Z,31.89
2022-12-04T08:46:01.237Z,31.87
2022-12-04T08:48:32.545Z,31.82
2022-12-04T08:51:06.026Z,31.81
2022-12-04T08:53:39.825Z,31.80
2022-12-04T08:56:10.604Z,31.80
2022-12-04T08:58:41.103Z,31.76
2022-12-04T09:01:15.933Z,31.73
2022-12-04T09:03:46.530Z,31.70
2022-12-04T09:06:19.963Z,31.69
2022-12-04T09:08:55.322Z,31.69
2022-12-04T09:11:28.319Z,31.64
2022-12-04T09:13:58.944Z,31.63
2022-12-04T09:16:29.958Z,31.61
2022-12-04T09:19:01.044Z,31.59
2022-12-04T09:21:32.914Z,31.59
2022-12-04T09:24:06.392Z,31.56
2022-12-04T09:26:37.474Z,31.41
2022-12-04T09:29:08.557Z,31.51
2022-12-04T09:31:39.395Z,31.53
2022-12-04T09:34:12.538Z,31.50
2022-12-04T09:36:42.782Z,31.51
2022-12-04T09:39:14.066Z,31.43
2022-12-04T09:42:08.999Z,31.43
2022-12-04T09:45:06.874Z,31.38
2022-12-04T09:47:46.877Z,31.37
2022-12-04T09:50:22.566Z,31.35
2022-12-04T09:53:11.123Z,31.27
2022-12-04T09:55:48.748Z,31.26
2022-12-04T09:58:24.108Z,31.27
2022-12-04T10:00:58.326Z,31.24
2022-12-04T10:03:31.722Z,31.23
2022-12-04T10:06:10.684Z,31.19
2022-12-04T10:08:43.575Z,31.17
2022-12-04T10:11:49.504Z,31.23
2022-12-04T10:14:47.165Z,31.15
2022-12-04T10:17:37.675Z,31.17
2022-12-04T10:20:25.224Z,31.14
2022-12-04T10:23:13.759Z,31.10
2022-12-04T10:25:45.304Z,31.10
2022-12-04T10:28:38.743Z,31.04
2022-12-04T10:31:14.354Z,31.06
2022-12-04T10:33:53.980Z,31.05
2022-12-04T10:36:30.907Z,31.02
2022-12-04T10:39:25.605Z,31.04
2022-12-04T10:42:13.722Z,31.06
2022-12-04T10:44:46.917Z,31.02
2022-12-04T10:47:18.005Z,30.99
2022-12-04T10:49:48.319Z,30.92
2022-12-04T10:52:19.374Z,30.89
2022-12-04T10:55:03.364Z,30.90
2022-12-04T10:57:52.291Z,30.90
2022-12-04T11:00:34.788Z,30.80
2022-12-04T11:03:29.316Z,30.89
2022-12-04T11:06:07.297Z,30.83
2022-12-04T11:08:42.107Z,30.85
2022-12-04T11:11:15.439Z,30.83
2022-12-04T11:13:45.936Z,30.84
2022-12-04T11:17:07.805Z,30.81
2022-12-04T11:19:41.621Z,30.83
2022-12-04T11:22:17.351Z,30.78
2022-12-04T11:24:59.391Z,30.79
2022-12-04T11:27:37.614Z,30.78
2022-12-04T11:30:15.847Z,30.78
2022-12-04T11:32:47.136Z,30.76
2022-12-04T11:35:24.487Z,30.75
2022-12-04T11:38:15.904Z,30.77
2022-12-04T11:41:04.998Z,30.74
2022-12-04T11:43:38.711Z,30.71
2022-12-04T11:46:17.398Z,30.74
2022-12-04T11:48:48.048Z,30.74
2022-12-04T11:51:36.324Z,30.74
2022-12-04T11:54:50.628Z,30.76
2022-12-04T11:57:44.974Z,30.81
2022-12-04T12:00:23.338Z,30.77
2022-12-04T12:03:14.628Z,30.92
2022-12-04T12:06:27.037Z,31.02
2022-12-04T12:09:21.305Z,31.10
2022-12-04T12:12:00.286Z,31.12
2022-12-04T12:14:42.153Z,31.13
2022-12-04T12:17:30.605Z,31.16
2022-12-04T12:20:40.075Z,31.23
2022-12-04T12:23:28.417Z,31.23
2022-12-04T12:26:11.991Z,31.19
2022-12-04T12:29:11.182Z,31.24
2022-12-04T12:31:51.237Z,31.25
2022-12-04T12:34:34.245Z,31.22
2022-12-04T12:37:29.839Z,31.18
2022-12-04T12:40:06.784Z,31.18
2022-12-04T12:42:55.066Z,31.20
2022-12-04T12:46:00.450Z,31.20
2022-12-04T12:48:58.392Z,31.15
2022-12-04T12:51:33.786Z,31.14
2022-12-04T12:54:14.157Z,31.12
2022-12-04T12:56:49.897Z,31.07
2022-12-04T12:59:24.119Z,31.10
2022-12-04T13:02:12.713Z,31.05
2022-12-04T13:04:52.046Z,31.09
2022-12-04T13:07:34.914Z,31.09
2022-12-04T13:10:09.370Z,31.06
2022-12-04T13:12:46.576Z,31.02
2022-12-04T13:15:18.775Z,31.03
2022-12-04T13:17:51.650Z,31.02
2022-12-04T13:20:28.826Z,31.02
2022-12-04T13:23:21.920Z,31.04
2022-12-04T13:25:58.484Z,31.02
2022-12-04T13:28:39.034Z,30.96
2022-12-04T13:31:15.569Z,30.93
2022-12-04T13:34:27.957Z,30.98
2022-12-04T13:37:06.046Z,30.96
2022-12-04T13:39:48.672Z,30.94
2022-12-04T13:42:25.741Z,30.93
2022-12-04T13:45:09.254Z,30.92
2022-12-04T13:47:40.401Z,30.89
2022-12-04T13:50:31.899Z,30.94
2022-12-04T13:53:06.454Z,30.91
2022-12-04T13:55:41.561Z,30.90
2022-12-04T13:58:13.317Z,30.90
2022-12-04T14:01:00.915Z,30.90
2022-12-04T14:03:52.536Z,30.91
2022-12-04T14:06:44.288Z,30.93
2022-12-04T14:09:29.793Z,30.91
2022-12-04T14:12:03.005Z,30.87
2022-12-04T14:14:41.032Z,30.88
2022-12-04T14:17:21.271Z,30.86
2022-12-04T14:20:02.900Z,30.86
2022-12-04T14:22:37.097Z,30.84
2022-12-04T14:25:38.958Z,30.86
2022-12-04T14:28:26.872Z,30.82
2022-12-04T14:31:37.417Z,30.84
2022-12-04T14:34:28.619Z,30.81
2022-12-04T14:36:59.821Z,30.68
2022-12-04T14:39:34.779Z,30.67
2022-12-04T14:42:16.511Z,30.66
2022-12-04T14:44:50.418Z,30.60
2022-12-04T14:47:27.473Z,30.55
2022-12-04T14:50:19.079Z,30.57
2022-12-04T14:53:01.926Z,30.54
2022-12-04T14:56:01.150Z,30.57
2022-12-04T14:58:38.412Z,30.55
2022-12-04T15:01:24.039Z,30.59
2022-12-04T15:04:01.610Z,30.53
2022-12-04T15:06:34.552Z,30.49
2022-12-04T15:09:25.054Z,30.48
2022-12-04T15:12:19.710Z,30.46
2022-12-04T15:14:51.447Z,30.44
2022-12-04T15:17:22.854Z,30.44
2022-12-04T15:19:54.011Z,30.44
2022-12-04T15:22:26.553Z,30.41
2022-12-04T15:24:57.421Z,30.40
2022-12-04T15:27:32.356Z,30.36
2022-12-04T15:30:04.553Z,30.36
2022-12-04T15:32:34.984Z,30.32
2022-12-04T15:35:10.571Z,30.31
2022-12-04T15:37:42.144Z,30.29
2022-12-04T15:40:24.611Z,30.28
2022-12-04T15:42:56.013Z,30.29
2022-12-04T15:45:32.615Z,30.26
2022-12-04T15:48:03.776Z,30.26
2022-12-04T15:50:34.356Z,30.26
2022-12-04T15:53:08.637Z,30.22
2022-12-04T15:55:47.402Z,30.19
2022-12-04T15:58:20.832Z,30.20
2022-12-04T16:01:13.177Z,30.23
2022-12-04T16:03:44.405Z,30.17
2022-12-04T16:06:21.606Z,30.15
2022-12-04T16:09:00.834Z,30.15
2022-12-04T16:11:42.029Z,30.15
2022-12-04T16:14:22.328Z,30.14
2022-12-04T16:16:54.778Z,30.11
2022-12-04T16:19:37.551Z,30.12
2022-12-04T16:22:22.943Z,30.13
2022-12-04T16:24:55.272Z,30.11
2022-12-04T16:27:27.180Z,30.08
2022-12-04T16:29:57.711Z,30.06
2022-12-04T16:32:34.412Z,30.07
2022-12-04T16:35:05.253Z,30.05
2022-12-04T16:37:36.133Z,30.04
2022-12-04T16:40:07.482Z,30.05
2022-12-04T16:42:38.210Z,30.04
2022-12-04T16:45:35.029Z,30.07
2022-12-04T16:48:08.604Z,30.00
2022-12-04T16:50:39.143Z,29.99
2022-12-04T16:53:09.376Z,29.99
2022-12-04T16:55:40.708Z,29.81
2022-12-04T16:58:11.246Z,29.73
2022-12-04T17:00:46.945Z,29.69
2022-12-04T17:03:25.701Z,29.67
2022-12-04T17:06:01.193Z,29.60
2022-12-04T17:08:32.869Z,29.59
2022-12-04T17:11:03.499Z,29.57
2022-12-04T17:13:34.339Z,29.57
2022-12-04T17:16:05.832Z,29.53
2022-12-04T17:18:37.551Z,29.54
2022-12-04T17:21:14.186Z,29.53
2022-12-04T17:23:45.080Z,29.50
2022-12-04T17:26:16.701Z,29.50
2022-12-04T17:28:47.330Z,29.46
2022-12-04T17:31:20.464Z,29.47
2022-12-04T17:33:50.977Z,29.48
2022-12-04T17:36:26.592Z,29.44
2022-12-04T17:38:59.234Z,29.38
2022-12-04T17:41:29.706Z,29.36
2022-12-04T17:44:02.034Z,29.37
2022-12-04T17:46:35.757Z,29.37
2022-12-04T17:49:07.464Z,29.31
2022-12-04T17:51:39.391Z,29.31
2022-12-04T17:54:09.807Z,29.28
2022-12-04T17:56:44.546Z,29.31
2022-12-04T17:59:18.330Z,29.28
2022-12-04T18:01:51.483Z,29.24
2022-12-04T18:04:22.291Z,29.21
2022-12-04T18:06:53.621Z,29.23
2022-12-04T18:09:24.001Z,29.22
2022-12-04T18:11:57.162Z,29.23
2022-12-04T18:14:30.226Z,29.21
2022-12-04T18:17:00.587Z,29.20
2022-12-04T18:19:31.597Z,29.18
2022-12-04T18:22:02.284Z,29.17
2022-12-04T18:24:33.038Z,29.18
2022-12-04T18:27:04.671Z,29.18
2022-12-04T18:29:35.488Z,29.18
2022-12-04T18:32:06.150Z,29.17
2022-12-04T18:34:36.678Z,29.15
2022-12-04T18:37:06.970Z,29.14
2022-12-04T18:39:37.491Z,29.12
2022-12-04T18:42:07.737Z,29.10
2022-12-04T18:44:38.356Z,29.08
2022-12-04T18:47:08.967Z,29.09
2022-12-04T18:49:39.493Z,29.10
2022-12-04T18:52:09.734Z,29.09
2022-12-04T18:54:40.237Z,29.10
2022-12-04T18:57:10.513Z,29.03
2022-12-04T18:59:41.220Z,29.02
2022-12-04T19:02:12.082Z,29.02
2022-12-04T19:04:42.622Z,28.97
2022-12-04T19:07:16.190Z,28.98
2022-12-04T19:12:37.680Z,28.98
2022-12-04T19:15:08.554Z,28.93
2022-12-04T19:17:39.655Z,28.92
2022-12-04T19:20:11.591Z,28.95
2022-12-04T19:22:43.507Z,28.94
2022-12-04T19:25:14.089Z,28.92
2022-12-04T19:27:44.687Z,28.91
2022-12-04T19:30:15.494Z,28.95
2022-12-04T19:32:48.094Z,28.97
2022-12-04T19:35:18.614Z,28.91
2022-12-04T19:37:52.591Z,28.91
2022-12-04T19:40:23.731Z,28.89
2022-12-04T19:43:01.116Z,28.84
2022-12-04T19:45:33.318Z,28.86
2022-12-04T19:48:03.665Z,28.86
2022-12-04T19:50:34.666Z,28.83
2022-12-04T19:53:06.013Z,28.87
2022-12-04T19:55:38.633Z,28.83
2022-12-04T19:58:09.471Z,28.81
2022-12-04T20:00:40.339Z,28.85
2022-12-04T20:03:10.834Z,28.83
2022-12-04T20:05:41.378Z,28.81
2022-12-04T20:10:40.314Z,28.82
2022-12-04T20:13:10.915Z,28.79
2022-12-04T20:15:46.380Z,28.79
2022-12-04T20:18:17.399Z,28.76
2022-12-04T20:20:58.607Z,28.77
2022-12-04T20:23:31.683Z,28.71
2022-12-04T20:26:15.134Z,28.71
2022-12-04T20:28:45.985Z,28.70
2022-12-04T20:31:22.508Z,28.72
2022-12-04T20:33:54.273Z,28.74
2022-12-04T20:36:28.119Z,28.74
2022-12-04T20:38:59.822Z,28.78
2022-12-04T20:41:31.898Z,28.71
2022-12-04T20:44:06.809Z,28.72
2022-12-04T20:46:40.045Z,28.69
2022-12-04T20:49:20.309Z,28.68
2022-12-04T20:51:53.102Z,28.68
2022-12-04T20:54:24.685Z,28.66
2022-12-04T20:56:57.247Z,28.64
2022-12-04T20:59:27.688Z,28.62
2022-12-04T21:01:57.925Z,28.64
2022-12-04T21:04:29.755Z,28.65
2022-12-04T21:07:00.877Z,28.58
2022-12-04T21:09:31.915Z,28.62
2022-12-04T21:12:02.147Z,28.62
2022-12-04T21:14:51.372Z,28.63
2022-12-04T21:17:22.379Z,28.63
2022-12-04T21:19:53.151Z,28.60
2022-12-04T21:22:24.172Z,28.59
2022-12-04T21:24:54.877Z,28.61
2022-12-04T21:27:25.491Z,28.63
2022-12-04T21:29:56.941Z,28.65
2022-12-04T21:32:30.209Z,28.58
2022-12-04T21:35:02.624Z,28.58
2022-12-04T21:37:33.137Z,28.60
2022-12-04T21:40:04.762Z,28.60
2022-12-04T21:42:36.362Z,28.57
2022-12-04T21:45:08.567Z,28.56
2022-12-04T21:47:39.302Z,28.57
2022-12-04T21:50:10.127Z,28.57
2022-12-04T21:52:41.147Z,28.58
2022-12-04T21:55:11.639Z,28.58
2022-12-04T21:57:42.291Z,28.58
2022-12-04T22:00:13.365Z,28.54
2022-12-04T22:02:43.872Z,28.55
2022-12-04T22:05:14.765Z,28.52
2022-12-04T22:07:45.056Z,28.51
2022-12-04T22:10:15.985Z,28.54
2022-12-04T22:12:50.605Z,28.50
2022-12-04T22:15:24.529Z,28.47
2022-12-04T22:17:55.337Z,28.50
2022-12-04T22:20:26.531Z,28.48
2022-12-04T22:22:57.928Z,28.49
2022-12-04T22:25:30.644Z,28.49
2022-12-04T22:28:01.994Z,28.51
2022-12-04T22:30:34.453Z,28.50
2022-12-04T22:33:05.015Z,28.41
2022-12-04T22:35:35.693Z,28.35
2022-12-04T22:38:06.373Z,28.45
2022-12-04T22:40:40.329Z,28.43
2022-12-04T22:43:10.534Z,28.36
2022-12-04T22:45:42.017Z,28.41
2022-12-04T22:48:12.453Z,28.44
2022-12-04T22:50:43.200Z,28.44
2022-12-04T22:53:14.076Z,28.42
2022-12-04T22:55:44.808Z,28.36
2022-12-04T22:58:15.287Z,28.37
2022-12-04T23:00:46.249Z,28.36
2022-12-04T23:03:17.717Z,28.39
2022-12-04T23:05:48.374Z,28.39
2022-12-04T23:08:19.369Z,28.34
2022-12-04T23:10:52.850Z,28.40
2022-12-04T23:13:25.076Z,28.44
2022-12-04T23:15:56.234Z,28.44
2022-12-04T23:18:29.908Z,28.40
2022-12-04T23:21:09.756Z,28.39
2022-12-04T23:23:42.007Z,28.34
2022-12-04T23:26:15.333Z,28.41
2022-12-04T23:28:46.166Z,28.42
2022-12-04T23:31:17.050Z,28.38
2022-12-04T23:33:47.822Z,28.28
2022-12-04T23:36:18.990Z,28.29
2022-12-04T23:38:50.039Z,28.29
2022-12-04T23:41:28.930Z,28.32
2022-12-04T23:43:59.835Z,28.28
2022-12-04T23:46:33.275Z,28.29
2022-12-04T23:49:03.733Z,28.29
2022-12-04T23:51:34.677Z,28.34
2022-12-04T23:54:05.078Z,28.32
2022-12-04T23:56:38.840Z,28.31
2022-12-04T23:59:20.217Z,28.32
